Time;durP1;ratioP1;P1;durP2;ratioP2;P2;SDS_P1;SDS_P2;PMS_P1;PMS_P2;Temp;Humidity;BMP_temperature;BMP_pressure;BME280_temperature;BME280_humidity;BME280_pressure;Samples;Min_cycle;Max_cycle;Signal;HPM_P1;HPM_P2
2021/05/10 00:00:28;;;;;;;1.87;1.77;;;20.20;92.40;;;;;;5025885;28;20216;-76
2021/05/10 00:02:54;;;;;;;3.87;1.97;;;20.10;92.40;;;;;;5025206;28;20659;-76
2021/05/10 00:05:21;;;;;;;2.10;2.00;;;20.10;92.50;;;;;;5025917;28;20212;-76
2021/05/10 00:07:48;;;;;;;4.63;1.90;;;20.10;92.60;;;;;;5025425;28;20301;-76
2021/05/10 00:10:14;;;;;;;1.97;1.77;;;20.10;92.60;;;;;;5025369;28;20578;-76
2021/05/10 00:12:40;;;;;;;2.70;1.90;;;20.00;92.50;;;;;;5025113;28;20655;-76
2021/05/10 00:15:08;;;;;;;3.00;1.80;;;20.00;92.50;;;;;;5024874;28;20216;-76
2021/05/10 00:17:34;;;;;;;2.07;1.70;;;20.00;92.50;;;;;;5025067;28;20209;-77
2021/05/10 00:20:00;;;;;;;2.27;2.17;;;20.00;92.50;;;;;;5024503;28;20611;-76
2021/05/10 00:22:26;;;;;;;2.03;1.93;;;19.90;92.60;;;;;;5024588;28;20222;-77
2021/05/10 00:24:53;;;;;;;2.10;1.63;;;19.90;92.70;;;;;;5025377;28;20208;-77
2021/05/10 00:27:19;;;;;;;2.67;2.20;;;19.90;92.80;;;;;;5025506;28;20668;-77
2021/05/10 00:29:45;;;;;;;5.53;2.03;;;19.90;92.70;;;;;;5025632;28;20209;-77
2021/05/10 00:32:11;;;;;;;2.07;1.97;;;19.90;92.80;;;;;;5025606;28;20209;-77
2021/05/10 00:34:37;;;;;;;2.07;1.97;;;19.80;92.70;;;;;;5025484;28;20238;-77
2021/05/10 00:37:04;;;;;;;2.30;2.10;;;19.80;92.70;;;;;;5025431;28;20294;-77
2021/05/10 00:39:30;;;;;;;2.90;2.17;;;19.80;92.60;;;;;;5025199;28;20240;-77
2021/05/10 00:41:57;;;;;;;5.13;1.83;;;19.80;92.70;;;;;;5025337;28;20208;-78
2021/05/10 00:44:24;;;;;;;2.20;2.00;;;19.80;92.70;;;;;;5025436;28;20252;-77
2021/05/10 00:46:53;;;;;;;3.40;2.30;;;19.70;92.70;;;;;;5025195;28;20289;-77
2021/05/10 00:49:19;;;;;;;1.90;1.80;;;19.70;92.70;;;;;;5025731;28;20244;-77
2021/05/10 00:51:45;;;;;;;2.30;2.10;;;19.70;92.60;;;;;;5025271;28;20205;-77
2021/05/10 00:54:11;;;;;;;2.23;2.10;;;19.70;92.70;;;;;;5025207;28;20653;-77
2021/05/10 00:56:37;;;;;;;4.50;1.80;;;19.70;92.70;;;;;;5025456;28;20205;-78
2021/05/10 00:59:05;;;;;;;3.67;1.83;;;19.60;92.60;;;;;;5025476;28;20243;-79
2021/05/10 01:01:31;;;;;;;2.00;1.90;;;19.60;92.60;;;;;;5025019;28;20200;-77
2021/05/10 01:03:57;;;;;;;2.40;2.00;;;19.60;92.60;;;;;;5025156;28;20209;-78
2021/05/10 01:06:23;;;;;;;2.13;2.03;;;19.50;92.40;;;;;;5025450;28;20581;-78
2021/05/10 01:08:49;;;;;;;2.00;1.90;;;19.50;92.40;;;;;;5025101;28;20237;-80
2021/05/10 01:11:16;;;;;;;1.90;1.80;;;19.50;92.40;;;;;;5024301;28;20209;-80
2021/05/10 01:13:42;;;;;;;2.10;2.00;;;19.50;92.30;;;;;;5024906;28;20228;-80
2021/05/10 01:16:10;;;;;;;3.57;1.90;;;19.50;92.30;;;;;;5024999;28;20379;-80
2021/05/10 01:18:36;;;;;;;2.33;2.13;;;19.50;92.40;;;;;;5025438;28;20212;-82
2021/05/10 01:21:03;;;;;;;2.00;1.87;;;19.50;92.40;;;;;;5025221;28;20296;-82
2021/05/10 01:23:30;;;;;;;2.53;1.90;;;19.40;92.20;;;;;;5025317;28;20209;-82
2021/05/10 01:25:57;;;;;;;1.87;1.77;;;19.40;92.20;;;;;;5025023;28;20638;-82
2021/05/10 01:28:23;;;;;;;2.10;2.00;;;19.40;92.20;;;;;;5027465;28;20565;-79
2021/05/10 01:30:51;;;;;;;2.77;1.93;;;19.40;92.10;;;;;;5027956;28;20576;-80
2021/05/10 01:33:19;;;;;;;3.30;1.87;;;19.40;92.00;;;;;;5028125;28;20740;-79
2021/05/10 01:35:46;;;;;;;2.03;1.80;;;19.30;91.90;;;;;;5027952;28;20765;-80
2021/05/10 01:38:13;;;;;;;2.07;1.97;;;19.30;92.00;;;;;;5027196;28;20237;-78
2021/05/10 01:40:41;;;;;;;2.00;1.90;;;19.30;92.20;;;;;;5027652;28;20228;-79
2021/05/10 01:43:07;;;;;;;2.60;1.90;;;19.30;92.00;;;;;;5027914;28;20212;-79
2021/05/10 01:45:34;;;;;;;1.97;1.83;;;19.30;92.10;;;;;;5028150;28;20201;-76
2021/05/10 01:48:03;;;;;;;2.10;1.70;;;19.30;92.00;;;;;;5027919;28;20237;-81
2021/05/10 01:50:30;;;;;;;1.90;1.80;;;19.20;92.00;;;;;;5027966;28;20601;-81
2021/05/10 01:52:56;;;;;;;2.80;1.77;;;19.20;91.90;;;;;;5027947;28;20589;-82
2021/05/10 01:55:24;;;;;;;1.80;1.70;;;19.20;92.00;;;;;;5027889;28;20205;-81
2021/05/10 01:57:53;;;;;;;1.57;1.53;;;19.20;92.00;;;;;;5027923;28;20205;-81
2021/05/10 02:00:22;;;;;;;2.03;1.93;;;19.20;91.80;;;;;;5027825;28;20209;-81
2021/05/10 02:02:48;;;;;;;1.90;1.80;;;19.20;91.80;;;;;;5027023;28;20209;-81
2021/05/10 02:05:16;;;;;;;2.17;1.80;;;19.20;91.80;;;;;;5027694;28;20213;-77
2021/05/10 02:07:43;;;;;;;2.20;1.73;;;19.10;91.90;;;;;;5027691;28;20734;-77
2021/05/10 02:10:14;;;;;;;2.03;1.73;;;19.10;92.20;;;;;;5027495;28;21012;-77
2021/05/10 02:12:40;;;;;;;2.67;2.10;;;19.10;92.00;;;;;;5027755;28;20229;-78
2021/05/10 02:15:10;;;;;;;2.20;2.00;;;19.10;92.30;;;;;;5027359;28;20209;-80
2021/05/10 02:17:37;;;;;;;2.87;1.90;;;19.00;92.10;;;;;;5027526;28;20334;-78
2021/05/10 02:20:06;;;;;;;2.40;1.80;;;19.00;92.10;;;;;;5027478;28;20208;-78
2021/05/10 02:22:33;;;;;;;6.37;1.90;;;19.00;92.00;;;;;;5027453;28;20252;-77
2021/05/10 02:24:59;;;;;;;1.90;1.80;;;19.00;92.10;;;;;;5027461;28;20344;-77
2021/05/10 02:27:25;;;;;;;3.00;1.47;;;19.00;91.90;;;;;;5027514;28;20228;-77
2021/05/10 02:29:51;;;;;;;3.07;1.80;;;18.90;91.90;;;;;;5027335;28;20205;-77
2021/05/10 02:32:19;;;;;;;2.27;1.70;;;18.90;92.00;;;;;;5027499;28;20209;-77
2021/05/10 02:34:45;;;;;;;1.67;1.57;;;18.90;91.80;;;;;;5027526;28;20216;-77
2021/05/10 02:37:12;;;;;;;2.80;1.60;;;18.90;91.90;;;;;;5026939;28;20224;-77
2021/05/10 02:39:39;;;;;;;4.63;1.90;;;18.90;91.90;;;;;;5025934;28;20263;-77
2021/05/10 02:42:05;;;;;;;3.23;1.57;;;18.90;91.70;;;;;;5027242;28;20240;-77
2021/05/10 02:44:32;;;;;;;2.77;1.80;;;18.90;91.80;;;;;;5027035;28;20209;-77
2021/05/10 02:46:58;;;;;;;1.97;1.70;;;18.80;91.80;;;;;;5027005;28;20240;-76
2021/05/10 02:49:25;;;;;;;1.93;1.83;;;18.80;91.70;;;;;;5026886;28;20240;-77
2021/05/10 02:51:51;;;;;;;2.50;1.70;;;18.80;91.80;;;;;;5027118;28;20317;-77
2021/05/10 02:54:17;;;;;;;1.87;1.47;;;18.80;91.90;;;;;;5027135;28;20208;-77
2021/05/10 02:56:43;;;;;;;2.17;1.80;;;18.80;92.00;;;;;;5026821;28;20213;-77
2021/05/10 02:59:09;;;;;;;2.57;1.63;;;18.70;92.00;;;;;;5026339;28;20215;-76
2021/05/10 03:01:35;;;;;;;4.17;1.67;;;18.70;91.90;;;;;;5026510;28;20212;-76
2021/05/10 03:04:01;;;;;;;2.80;1.57;;;18.70;91.90;;;;;;5026506;28;20209;-76
2021/05/10 03:06:28;;;;;;;1.97;1.77;;;18.60;92.00;;;;;;5026789;28;20209;-76
2021/05/10 03:08:54;;;;;;;1.50;1.50;;;18.60;92.20;;;;;;5026333;28;20640;-76
2021/05/10 03:11:21;;;;;;;2.23;1.50;;;18.60;92.20;;;;;;5026545;28;20212;-79
2021/05/10 03:13:47;;;;;;;1.53;1.43;;;18.50;92.10;;;;;;5026616;28;20205;-78
2021/05/10 03:16:13;;;;;;;1.97;1.67;;;18.50;92.10;;;;;;5026269;28;20283;-78
2021/05/10 03:18:39;;;;;;;1.90;1.80;;;18.50;92.10;;;;;;5026647;28;20209;-78
2021/05/10 03:21:05;;;;;;;2.97;1.73;;;18.50;92.20;;;;;;5026771;28;20247;-78
2021/05/10 03:23:32;;;;;;;3.37;1.97;;;18.50;92.30;;;;;;5026710;28;20260;-77
2021/05/10 03:25:58;;;;;;;2.33;1.63;;;18.40;92.40;;;;;;5027137;28;20244;-78
2021/05/10 03:28:25;;;;;;;4.30;1.60;;;18.40;92.30;;;;;;5026498;28;20228;-77
2021/05/10 03:30:51;;;;;;;3.70;1.73;;;18.30;92.40;;;;;;5026434;28;20290;-78
2021/05/10 03:33:17;;;;;;;1.43;1.37;;;18.30;92.70;;;;;;5025823;28;20266;-78
2021/05/10 03:35:43;;;;;;;2.17;1.70;;;18.30;92.60;;;;;;5026612;28;20212;-78
2021/05/10 03:38:09;;;;;;;1.70;1.60;;;18.30;92.60;;;;;;5025976;28;20244;-78
2021/05/10 03:40:36;;;;;;;2.67;1.70;;;18.30;92.60;;;;;;5026300;28;20216;-78
2021/05/10 03:43:02;;;;;;;2.50;1.70;;;18.20;92.60;;;;;;5026003;28;20205;-78
2021/05/10 03:45:28;;;;;;;3.20;1.80;;;18.20;92.60;;;;;;5026203;28;20209;-77
2021/05/10 03:47:54;;;;;;;1.60;1.57;;;18.20;92.60;;;;;;5026212;28;20268;-77
2021/05/10 03:50:22;;;;;;;1.93;1.53;;;18.20;92.60;;;;;;5026083;28;20216;-77
2021/05/10 03:52:50;;;;;;;1.97;1.87;;;18.10;92.90;;;;;;5026222;28;20212;-78
2021/05/10 03:55:17;;;;;;;1.60;1.50;;;18.10;92.80;;;;;;5026075;28;20623;-78
2021/05/10 03:57:45;;;;;;;2.77;1.50;;;18.10;92.80;;;;;;5025905;28;20216;-78
2021/05/10 04:00:13;;;;;;;3.60;1.80;;;18.10;92.80;;;;;;5025680;28;20216;-79
2021/05/10 04:02:40;;;;;;;2.60;1.70;;;18.10;92.80;;;;;;5025936;28;20200;-79
2021/05/10 04:05:14;;;;;;;2.10;1.47;;;18.10;92.90;;;;;;5025498;28;20555;-78
2021/05/10 04:07:46;;;;;;;3.50;1.73;;;18.10;92.70;;;;;;5025892;28;20259;-79
2021/05/10 04:15:57;;;;;;;5.10;1.70;;;18.00;92.70;;;;;;5025652;28;20626;-78
2021/05/10 04:18:23;;;;;;;1.90;1.50;;;18.00;92.70;;;;;;5026049;28;20209;-78
2021/05/10 04:20:49;;;;;;;2.00;1.50;;;18.00;92.70;;;;;;5025865;28;20219;-78
2021/05/10 04:23:17;;;;;;;1.73;1.50;;;18.00;92.60;;;;;;5025592;28;20204;-78
2021/05/10 04:25:44;;;;;;;2.23;1.70;;;18.10;92.60;;;;;;5025129;28;20753;-78
2021/05/10 04:28:11;;;;;;;2.70;1.77;;;18.10;92.60;;;;;;5025480;28;20243;-77
2021/05/10 04:30:37;;;;;;;3.37;1.93;;;18.00;92.50;;;;;;5026211;28;20723;-77
2021/05/10 04:33:04;;;;;;;1.93;1.73;;;18.00;92.30;;;;;;5025604;28;20209;-77
2021/05/10 04:35:32;;;;;;;3.27;1.77;;;18.00;92.40;;;;;;5025932;28;20685;-77
2021/05/10 04:37:58;;;;;;;1.70;1.60;;;18.00;92.40;;;;;;5025570;28;20229;-77
2021/05/10 04:40:24;;;;;;;1.70;1.60;;;18.10;92.20;;;;;;5025201;28;20570;-76
2021/05/10 04:42:50;;;;;;;2.40;1.77;;;18.00;92.20;;;;;;5025045;28;20678;-77
2021/05/10 04:45:17;;;;;;;3.23;1.57;;;18.00;92.20;;;;;;5025140;28;20542;-80
2021/05/10 04:47:46;;;;;;;1.80;1.60;;;18.00;92.30;;;;;;5024869;28;20675;-80
2021/05/10 04:50:13;;;;;;;1.50;1.40;;;18.00;92.30;;;;;;5025102;28;20213;-81
2021/05/10 04:52:40;;;;;;;1.60;1.50;;;18.00;92.30;;;;;;5025089;28;20212;-81
2021/05/10 04:55:08;;;;;;;1.83;1.67;;;18.00;92.00;;;;;;5025050;28;20205;-80
2021/05/10 04:57:34;;;;;;;1.60;1.50;;;18.10;92.10;;;;;;5025297;28;20223;-80
2021/05/10 05:00:00;;;;;;;1.40;1.30;;;18.00;92.20;;;;;;5025019;28;20244;-76
2021/05/10 05:02:27;;;;;;;1.53;1.43;;;18.00;92.00;;;;;;5026720;28;20219;-77
2021/05/10 05:04:53;;;;;;;2.97;1.90;;;18.10;92.10;;;;;;5028444;28;20205;-77
2021/05/10 05:07:20;;;;;;;2.37;1.33;;;18.10;92.20;;;;;;5028500;28;20233;-76
2021/05/10 05:09:46;;;;;;;1.33;1.33;;;18.20;92.20;;;;;;5028750;28;20562;-77
2021/05/10 05:12:12;;;;;;;1.87;1.50;;;18.20;92.20;;;;;;5028447;28;20287;-76
2021/05/10 05:14:38;;;;;;;4.10;1.57;;;18.20;91.80;;;;;;5028359;28;20950;-76
2021/05/10 05:17:04;;;;;;;2.13;1.30;;;18.20;91.70;;;;;;5028052;28;20205;-76
2021/05/10 05:19:31;;;;;;;4.30;1.30;;;18.30;91.40;;;;;;5028418;28;20244;-76
2021/05/10 05:21:57;;;;;;;2.00;1.63;;;18.20;91.40;;;;;;5028454;28;20297;-77
2021/05/10 05:24:23;;;;;;;1.47;1.37;;;18.20;91.30;;;;;;5028244;28;20244;-77
2021/05/10 05:26:49;;;;;;;1.77;1.50;;;18.30;91.30;;;;;;5028172;28;20256;-77
2021/05/10 05:29:19;;;;;;;1.97;1.40;;;18.30;91.20;;;;;;5027962;28;20255;-77
2021/05/10 05:31:45;;;;;;;2.90;1.40;;;18.40;91.10;;;;;;5028229;28;20205;-77
2021/05/10 05:34:12;;;;;;;3.43;1.70;;;18.30;91.00;;;;;;5027934;28;20579;-78
2021/05/10 05:36:38;;;;;;;1.83;1.40;;;18.40;91.10;;;;;;5028266;28;20209;-77
2021/05/10 05:39:07;;;;;;;1.93;1.50;;;18.40;91.20;;;;;;5027685;28;20245;-78
2021/05/10 05:41:33;;;;;;;2.40;1.80;;;18.40;91.10;;;;;;5027889;28;20216;-77
2021/05/10 05:43:59;;;;;;;1.70;1.60;;;18.40;90.80;;;;;;5028087;28;20205;-77
2021/05/10 05:46:27;;;;;;;1.77;1.23;;;18.40;90.90;;;;;;5028015;28;20205;-78
2021/05/10 05:48:54;;;;;;;1.40;1.30;;;18.40;90.70;;;;;;5027937;28;20313;-77
2021/05/10 05:51:20;;;;;;;1.67;1.40;;;18.40;90.80;;;;;;5027939;28;20201;-78
2021/05/10 05:53:47;;;;;;;1.33;1.23;;;18.50;91.00;;;;;;5027751;28;20220;-78
2021/05/10 05:56:14;;;;;;;3.33;1.50;;;18.50;91.20;;;;;;5027820;28;20283;-77
2021/05/10 05:58:40;;;;;;;3.27;2.03;;;18.50;90.90;;;;;;5027305;28;20675;-78
2021/05/10 06:01:06;;;;;;;2.40;1.73;;;18.60;90.90;;;;;;5027328;28;20209;-77
2021/05/10 06:03:32;;;;;;;1.67;1.57;;;18.60;90.70;;;;;;5027732;28;20236;-77
2021/05/10 06:05:58;;;;;;;1.50;1.40;;;18.60;90.70;;;;;;5027871;28;20205;-78
2021/05/10 06:08:24;;;;;;;2.00;1.57;;;18.60;90.70;;;;;;5027488;28;20240;-77
2021/05/10 06:10:51;;;;;;;1.60;1.50;;;18.60;90.80;;;;;;5027456;28;20216;-78
2021/05/10 06:13:18;;;;;;;2.13;1.43;;;18.60;90.90;;;;;;5026232;28;20228;-79
2021/05/10 06:15:44;;;;;;;3.70;1.70;;;18.60;91.00;;;;;;5027318;28;20217;-79
2021/05/10 06:18:11;;;;;;;4.80;1.50;;;18.60;91.10;;;;;;5027337;28;20223;-78
2021/05/10 06:20:38;;;;;;;4.27;1.50;;;18.60;91.30;;;;;;5027357;28;20216;-80
2021/05/10 06:23:04;;;;;;;2.60;1.27;;;18.70;91.50;;;;;;5027066;28;20205;-80
2021/05/10 06:25:31;;;;;;;3.97;1.40;;;18.60;91.40;;;;;;5027502;28;20232;-79
2021/05/10 06:27:58;;;;;;;1.67;1.57;;;18.70;91.50;;;;;;5027443;28;20232;-77
2021/05/10 06:30:24;;;;;;;1.87;1.60;;;18.70;91.50;;;;;;5026567;28;20253;-76
2021/05/10 06:32:51;;;;;;;1.57;1.47;;;18.70;91.70;;;;;;5025727;28;20212;-76
2021/05/10 06:35:18;;;;;;;4.50;1.60;;;18.80;91.50;;;;;;5026650;28;20291;-75
2021/05/10 06:37:44;;;;;;;2.00;1.63;;;18.80;91.60;;;;;;5028704;28;20573;-75
2021/05/10 06:40:12;;;;;;;1.57;1.33;;;18.80;91.60;;;;;;5034956;28;20232;-77
2021/05/10 06:42:38;;;;;;;1.57;1.47;;;18.80;91.70;;;;;;5046982;28;20680;-78
2021/05/10 06:45:08;;;;;;;2.50;1.47;;;18.90;92.00;;;;;;5033253;28;20216;-78
2021/05/10 06:47:35;;;;;;;2.33;1.83;;;18.90;92.00;;;;;;5027035;28;20319;-75
2021/05/10 06:50:01;;;;;;;2.37;1.80;;;18.90;91.60;;;;;;5037036;28;20208;-77
2021/05/10 06:52:28;;;;;;;4.07;1.77;;;18.90;91.50;;;;;;5041902;28;20655;-77
2021/05/10 06:54:54;;;;;;;1.93;1.77;;;19.00;91.70;;;;;;5034143;28;20233;-76
2021/05/10 06:57:20;;;;;;;2.13;1.40;;;19.00;91.90;;;;;;5034345;28;20217;-76
2021/05/10 06:59:46;;;;;;;3.10;1.30;;;19.00;91.90;;;;;;5030851;28;20599;-76
2021/05/10 07:02:13;;;;;;;3.73;1.60;;;19.00;91.70;;;;;;5022228;28;20220;-76
2021/05/10 07:04:39;;;;;;;4.07;1.60;;;19.10;92.30;;;;;;5022250;28;20204;-76
2021/05/10 07:07:05;;;;;;;2.40;1.40;;;19.10;91.80;;;;;;5022027;28;20209;-76
2021/05/10 07:09:31;;;;;;;1.60;1.50;;;19.10;91.90;;;;;;5022351;28;20216;-77
2021/05/10 07:11:58;;;;;;;2.87;1.50;;;19.20;91.90;;;;;;5022459;28;20213;-79
2021/05/10 07:14:24;;;;;;;4.87;1.47;;;19.20;92.00;;;;;;5022187;28;20248;-77
2021/05/10 07:16:50;;;;;;;1.37;1.27;;;19.20;91.60;;;;;;5022892;28;20247;-77
2021/05/10 07:19:17;;;;;;;1.53;1.43;;;19.20;91.70;;;;;;5022348;28;20682;-77
2021/05/10 07:21:43;;;;;;;2.10;1.93;;;19.30;91.90;;;;;;5022245;28;20671;-77
2021/05/10 07:24:10;;;;;;;5.93;1.70;;;19.30;92.20;;;;;;5022084;28;20204;-76
2021/05/10 07:26:36;;;;;;;3.20;1.40;;;19.30;92.60;;;;;;5022029;28;20224;-77
2021/05/10 07:29:02;;;;;;;2.87;1.53;;;19.30;92.50;;;;;;5022052;28;20721;-77
2021/05/10 07:31:28;;;;;;;1.53;1.43;;;19.30;92.70;;;;;;5022432;28;20248;-77
2021/05/10 07:33:55;;;;;;;2.50;1.70;;;19.30;92.80;;;;;;5022565;28;20497;-77
2021/05/10 07:36:22;;;;;;;2.87;1.57;;;19.40;92.90;;;;;;5022347;28;20529;-76
2021/05/10 07:38:48;;;;;;;2.10;1.90;;;19.40;92.90;;;;;;5022308;28;20622;-77
2021/05/10 07:41:15;;;;;;;1.80;1.70;;;19.40;93.40;;;;;;5022318;28;20212;-77
2021/05/10 07:43:42;;;;;;;3.83;2.03;;;19.50;93.80;;;;;;5022608;28;20234;-77
2021/05/10 07:46:08;;;;;;;2.80;1.77;;;19.50;93.40;;;;;;5022011;28;20209;-76
2021/05/10 07:48:37;;;;;;;2.13;1.90;;;19.50;93.50;;;;;;5022266;28;20627;-76
2021/05/10 07:51:03;;;;;;;3.63;1.90;;;19.60;93.50;;;;;;5021712;28;20232;-76
2021/05/10 07:53:30;;;;;;;2.50;1.90;;;19.60;92.50;;;;;;5020567;28;20197;-77
2021/05/10 07:55:57;;;;;;;2.83;1.80;;;19.60;92.60;;;;;;5021531;28;20269;-77
2021/05/10 07:58:24;;;;;;;2.80;1.70;;;19.70;92.60;;;;;;5020866;28;20283;-77
2021/05/10 08:00:55;;;;;;;1.80;1.70;;;19.70;92.90;;;;;;5029393;28;20205;-77
2021/05/10 08:03:23;;;;;;;2.00;1.90;;;19.80;92.50;;;;;;5028078;28;20387;-74
2021/05/10 08:05:50;;;;;;;4.87;2.20;;;19.80;92.70;;;;;;5029703;28;20213;-74
2021/05/10 08:08:17;;;;;;;5.77;1.70;;;19.90;92.30;;;;;;5039568;28;20753;-77
2021/05/10 08:10:44;;;;;;;2.43;2.23;;;19.90;92.70;;;;;;5038689;28;20219;-77
2021/05/10 08:13:10;;;;;;;3.93;2.87;;;20.00;92.50;;;;;;5031011;28;20200;-79
2021/05/10 08:15:38;;;;;;;3.53;2.40;;;20.10;92.30;;;;;;5032988;28;20269;-77
2021/05/10 08:18:04;;;;;;;7.70;5.07;;;20.10;92.60;;;;;;5021812;28;20248;-77
2021/05/10 08:20:31;;;;;;;2.67;2.00;;;20.20;92.10;;;;;;5021376;28;20677;-77
2021/05/10 08:22:57;;;;;;;2.40;1.60;;;20.20;91.90;;;;;;5021940;28;20212;-77
2021/05/10 08:25:23;;;;;;;3.30;2.00;;;20.30;91.70;;;;;;5033264;28;20234;-77
2021/05/10 08:27:51;;;;;;;2.70;1.90;;;20.40;92.00;;;;;;5029783;28;20675;-76
2021/05/10 08:30:18;;;;;;;1.83;1.60;;;20.40;92.30;;;;;;5051928;27;20231;-77
2021/05/10 08:32:44;;;;;;;1.57;1.43;;;20.40;91.90;;;;;;5053877;28;20219;-77
2021/05/10 08:35:11;;;;;;;2.10;1.90;;;20.50;92.10;;;;;;5044984;28;20410;-77
2021/05/10 08:37:38;;;;;;;1.80;1.70;;;20.60;92.00;;;;;;5044408;28;20216;-77
2021/05/10 08:40:06;;;;;;;2.23;1.40;;;20.70;91.80;;;;;;5034338;28;20716;-77
2021/05/10 08:42:32;;;;;;;1.70;1.60;;;20.70;91.70;;;;;;5038959;28;20217;-77
2021/05/10 08:45:00;;;;;;;2.53;1.80;;;20.70;91.80;;;;;;5041457;28;20654;-77
2021/05/10 08:47:32;;;;;;;3.03;1.67;;;20.70;92.00;;;;;;5031988;28;20219;-77
2021/05/10 08:49:59;;;;;;;2.38;1.58;;;20.70;92.30;;;;;;5043431;28;20299;-76
2021/05/10 08:52:25;;;;;;;1.93;1.73;;;20.80;92.20;;;;;;5036769;27;20667;-69
2021/05/10 08:54:52;;;;;;;1.67;1.57;;;20.90;92.00;;;;;;5031295;28;20626;-75
2021/05/10 08:57:18;;;;;;;1.83;1.73;;;21.00;92.00;;;;;;5039257;28;20229;-76
2021/05/10 08:59:44;;;;;;;9.13;2.27;;;21.00;92.50;;;;;;5044293;27;20272;-76
2021/05/10 09:02:12;;;;;;;3.92;1.70;;;21.10;92.30;;;;;;5024986;28;20217;-75
2021/05/10 09:04:39;;;;;;;2.97;1.73;;;21.20;92.00;;;;;;5037791;28;20265;-75
2021/05/10 09:07:18;;;;;;;1.92;1.70;;;21.20;91.90;;;;;;5038156;28;20262;-76
2021/05/10 09:09:55;;;;;;;4.13;2.08;;;21.30;92.10;;;;;;5025456;28;20642;-75
2021/05/10 09:12:23;;;;;;;2.08;1.98;;;21.30;91.60;;;;;;5038389;28;20208;-76
2021/05/10 09:14:50;;;;;;;4.28;1.90;;;21.40;91.70;;;;;;5027570;28;20204;-76
2021/05/10 09:17:18;;;;;;;3.80;1.85;;;21.60;92.10;;;;;;5024575;28;20675;-76
2021/05/10 09:19:48;;;;;;;1.83;1.70;;;21.70;91.60;;;;;;5031535;28;20208;-76
2021/05/10 09:22:15;;;;;;;1.60;1.60;;;21.80;91.60;;;;;;5027650;27;20261;-75
2021/05/10 09:24:59;;;;;;;2.15;1.88;;;21.90;91.40;;;;;;5024824;27;20653;-76
2021/05/10 09:27:27;;;;;;;2.47;1.65;;;21.90;91.50;;;;;;5033576;27;20207;-76
2021/05/10 09:30:12;;;;;;;1.80;1.70;;;22.00;91.60;;;;;;5066087;27;20219;-76
2021/05/10 09:32:40;;;;;;;2.05;1.95;;;22.00;91.70;;;;;;5066058;27;20198;-76
2021/05/10 09:35:21;;;;;;;3.40;2.05;;;22.10;91.20;;;;;;5066276;27;20218;-76
2021/05/10 09:37:55;;;;;;;1.85;1.70;;;22.20;91.20;;;;;;5066269;28;20235;-76
2021/05/10 09:40:21;;;;;;;4.45;1.80;;;22.30;91.00;;;;;;5066302;28;20458;-76
2021/05/10 09:42:52;;;;;;;3.25;1.80;;;22.40;90.90;;;;;;5066989;27;20480;-76
2021/05/10 09:45:44;;;;;;;4.15;1.83;;;22.40;90.90;;;;;;5067548;27;20188;-76
2021/05/10 09:48:17;;;;;;;3.00;1.88;;;22.50;91.00;;;;;;5067091;28;20215;-76
2021/05/10 09:50:45;;;;;;;3.78;1.60;;;22.50;90.80;;;;;;5067768;27;20260;-76
2021/05/10 09:53:14;;;;;;;1.70;1.60;;;22.50;90.80;;;;;;5067246;28;20279;-76
2021/05/10 09:55:51;;;;;;;1.80;1.70;;;22.60;91.00;;;;;;5067847;28;20298;-76
2021/05/10 09:58:18;;;;;;;1.90;1.80;;;22.60;90.60;;;;;;5067316;27;20248;-76
2021/05/10 10:00:45;;;;;;;13.18;2.53;;;22.70;90.50;;;;;;5067321;28;20203;-76
2021/05/10 10:03:30;;;;;;;2.08;1.98;;;22.80;90.70;;;;;;5067373;27;20203;-76
2021/05/10 10:05:59;;;;;;;1.92;1.83;;;22.90;90.60;;;;;;5067322;27;20612;-76
2021/05/10 10:08:25;;;;;;;14.45;2.13;;;23.10;90.30;;;;;;5067454;27;20231;-76
2021/05/10 10:10:52;;;;;;;4.35;2.00;;;23.20;90.50;;;;;;5067236;28;20256;-76
2021/05/10 10:13:19;;;;;;;1.80;1.70;;;23.30;90.30;;;;;;5067137;27;20208;-76
2021/05/10 10:15:47;;;;;;;5.15;2.03;;;23.40;89.20;;;;;;5067196;28;20246;-76
2021/05/10 10:18:16;;;;;;;4.93;1.60;;;23.50;88.80;;;;;;5067066;28;20243;-76
2021/05/10 10:20:44;;;;;;;1.73;1.63;;;23.60;88.40;;;;;;5067052;28;20570;-76
2021/05/10 10:23:12;;;;;;;2.20;1.85;;;23.80;87.20;;;;;;5067219;28;20215;-76
2021/05/10 10:25:40;;;;;;;3.15;1.92;;;23.90;88.00;;;;;;5067083;27;20224;-76
2021/05/10 10:28:08;;;;;;;3.55;1.95;;;24.00;88.00;;;;;;5067075;27;20275;-76
2021/05/10 10:30:38;;;;;;;2.63;1.75;;;24.10;87.40;;;;;;5066974;27;20424;-76
2021/05/10 10:33:08;;;;;;;2.42;2.00;;;24.20;87.50;;;;;;5066784;27;20623;-76
2021/05/10 10:35:37;;;;;;;2.65;2.00;;;24.30;87.70;;;;;;5066360;28;20976;-76
2021/05/10 10:38:05;;;;;;;2.10;2.00;;;24.40;86.60;;;;;;5066460;27;20746;-76
2021/05/10 10:40:31;;;;;;;3.58;2.00;;;24.50;87.10;;;;;;5066678;27;20645;-76
2021/05/10 10:43:22;;;;;;;4.07;2.00;;;24.50;86.90;;;;;;5066937;27;20215;-76
2021/05/10 10:46:19;;;;;;;1.90;1.80;;;24.60;86.60;;;;;;5066837;28;20187;-76
2021/05/10 10:48:46;;;;;;;2.13;1.90;;;24.80;86.80;;;;;;5066483;27;20267;-76
2021/05/10 10:51:14;;;;;;;2.08;1.85;;;25.00;87.30;;;;;;5066639;28;20316;-76
2021/05/10 10:53:43;;;;;;;1.95;1.85;;;25.00;88.10;;;;;;5066696;27;20252;-76
2021/05/10 10:56:10;;;;;;;3.15;2.30;;;25.10;86.00;;;;;;5066700;27;20214;-77
2021/05/10 10:58:37;;;;;;;2.30;2.10;;;25.30;85.30;;;;;;5066457;27;20249;-76
2021/05/10 11:01:06;;;;;;;2.03;1.92;;;25.40;84.70;;;;;;5065919;27;20211;-77
2021/05/10 11:03:34;;;;;;;3.88;2.05;;;25.60;85.30;;;;;;5066118;27;20618;-76
2021/05/10 11:06:01;;;;;;;1.80;1.67;;;25.70;83.70;;;;;;5066780;27;20226;-76
2021/05/10 11:08:45;;;;;;;5.53;2.08;;;25.80;83.00;;;;;;5066518;27;20306;-77
2021/05/10 11:11:13;;;;;;;1.90;1.60;;;25.90;82.10;;;;;;5066443;28;20216;-76
2021/05/10 11:13:40;;;;;;;4.68;2.00;;;26.00;83.10;;;;;;5066223;27;20206;-76
2021/05/10 11:16:09;;;;;;;4.32;2.10;;;26.10;83.10;;;;;;5066050;28;20294;-76
2021/05/10 11:18:45;;;;;;;2.90;1.80;;;26.30;83.70;;;;;;5066229;28;20211;-76
2021/05/10 11:21:40;;;;;;;2.20;2.00;;;26.50;82.90;;;;;;5066491;27;20195;-76
2021/05/10 11:24:11;;;;;;;1.92;1.83;;;26.50;82.80;;;;;;5064317;28;20658;-74
2021/05/10 11:26:40;;;;;;;2.55;1.77;;;26.70;83.00;;;;;;5045873;28;20199;-74
2021/05/10 11:29:08;;;;;;;6.10;1.75;;;26.80;82.20;;;;;;5046451;27;20296;-74
2021/05/10 11:31:37;;;;;;;3.25;1.90;;;26.90;81.70;;;;;;5046034;28;20235;-77
2021/05/10 11:34:12;;;;;;;2.88;1.80;;;26.90;80.70;;;;;;5046220;28;20213;-76
2021/05/10 11:36:46;;;;;;;2.45;1.92;;;27.00;82.10;;;;;;5045969;28;20195;-75
2021/05/10 11:39:17;;;;;;;2.00;1.90;;;27.10;81.70;;;;;;5045657;28;20235;-75
2021/05/10 11:41:44;;;;;;;2.10;1.90;;;27.20;80.90;;;;;;5045729;28;20197;-74
2021/05/10 11:44:19;;;;;;;4.55;1.75;;;27.30;79.00;;;;;;5045430;28;20261;-74
2021/05/10 11:46:48;;;;;;;1.80;1.70;;;27.40;79.70;;;;;;5045304;28;20649;-75
2021/05/10 11:49:24;;;;;;;3.13;1.55;;;27.50;79.10;;;;;;5045862;28;20243;-75
2021/05/10 11:51:50;;;;;;;1.88;1.77;;;27.40;77.10;;;;;;5045938;28;20197;-75
2021/05/10 11:54:17;;;;;;;1.75;1.70;;;27.30;78.20;;;;;;5045117;28;20693;-75
2021/05/10 11:56:46;;;;;;;2.88;2.03;;;27.30;78.60;;;;;;5045559;28;20212;-75
2021/05/10 11:59:33;;;;;;;5.32;3.10;;;27.40;78.40;;;;;;5045660;28;20208;-75
2021/05/10 12:02:00;;;;;;;2.08;1.98;;;27.60;79.20;;;;;;5045381;28;20200;-75
2021/05/10 12:04:28;;;;;;;4.10;2.00;;;27.70;77.80;;;;;;5046131;28;20208;-75
2021/05/10 12:06:55;;;;;;;3.05;1.70;;;27.80;77.60;;;;;;5045310;28;20216;-74
2021/05/10 12:09:32;;;;;;;1.90;1.80;;;27.90;77.10;;;;;;5045291;27;20243;-75
2021/05/10 12:11:59;;;;;;;1.77;1.67;;;28.00;75.80;;;;;;5044274;28;20204;-75
2021/05/10 12:14:25;;;;;;;3.33;1.95;;;28.20;76.40;;;;;;5045150;28;20256;-74
2021/05/10 12:17:06;;;;;;;1.88;1.77;;;28.30;75.30;;;;;;5045326;28;20239;-75
2021/05/10 12:19:52;;;;;;;13.43;2.05;;;28.40;76.40;;;;;;5045117;28;20212;-75
2021/05/10 12:22:19;;;;;;;2.58;1.70;;;28.50;75.60;;;;;;5044858;28;20566;-74
2021/05/10 12:24:57;;;;;;;2.03;1.80;;;28.60;75.10;;;;;;5044932;28;20774;-74
2021/05/10 12:27:24;;;;;;;1.70;1.50;;;28.70;74.20;;;;;;5044944;28;20591;-75
2021/05/10 12:29:52;;;;;;;1.98;1.88;;;28.70;75.50;;;;;;5045423;28;20236;-75
2021/05/10 12:32:18;;;;;;;3.25;1.67;;;28.90;74.70;;;;;;5045113;28;20204;-74
2021/05/10 12:34:45;;;;;;;2.95;1.75;;;28.90;73.70;;;;;;5045375;28;20204;-75
2021/05/10 12:37:11;;;;;;;2.03;1.88;;;29.00;73.90;;;;;;5044988;28;20247;-75
2021/05/10 12:39:38;;;;;;;3.08;1.80;;;29.00;73.10;;;;;;5044584;28;20243;-75
2021/05/10 12:42:17;;;;;;;4.13;1.85;;;29.10;73.20;;;;;;5044894;28;20662;-75
2021/05/10 12:44:55;;;;;;;5.00;1.85;;;29.20;72.40;;;;;;5044763;28;20676;-75
2021/05/10 12:47:40;;;;;;;9.00;2.00;;;29.30;74.30;;;;;;5044904;28;20273;-75
2021/05/10 12:50:06;;;;;;;12.63;2.10;;;29.30;73.70;;;;;;5045032;28;20204;-75
2021/05/10 12:52:45;;;;;;;3.03;1.88;;;29.30;74.00;;;;;;5044837;28;20204;-75
2021/05/10 12:55:30;;;;;;;2.67;1.52;;;29.30;73.60;;;;;;5044744;28;20642;-75